createdAt,value
2018-06-29T00:00:05.353Z,19.40
2018-06-29T00:02:34.660Z,19.30
2018-06-29T00:05:07.902Z,19.10
2018-06-29T00:07:37.348Z,19.00
2018-06-29T00:10:07.372Z,19.00
2018-06-29T00:12:36.719Z,18.80
2018-06-29T00:15:06.055Z,18.70
2018-06-29T00:17:35.237Z,18.80
2018-06-29T00:20:04.693Z,18.80
2018-06-29T00:22:34.016Z,19.00
2018-06-29T00:25:03.447Z,18.90
2018-06-29T00:27:32.921Z,18.80
2018-06-29T00:30:02.747Z,18.60
2018-06-29T00:32:32.104Z,18.30
2018-06-29T00:35:01.311Z,18.10
2018-06-29T00:37:30.495Z,18.00
2018-06-29T00:39:59.777Z,17.90
2018-06-29T00:42:29.451Z,17.80
2018-06-29T00:44:58.876Z,17.80
2018-06-29T00:47:28.276Z,17.80
2018-06-29T00:49:57.568Z,17.80
2018-06-29T00:52:26.835Z,17.90
2018-06-29T00:54:56.100Z,17.90
2018-06-29T00:57:25.421Z,18.00
2018-06-29T00:59:54.755Z,18.10
2018-06-29T01:02:24.044Z,18.10
2018-06-29T01:04:53.335Z,18.00
2018-06-29T01:07:22.719Z,17.90
2018-06-29T01:09:51.931Z,17.80
2018-06-29T01:12:21.718Z,17.60
2018-06-29T01:14:51.040Z,17.50
2018-06-29T01:17:20.243Z,17.40
2018-06-29T01:19:49.487Z,17.30
2018-06-29T01:22:18.783Z,17.30
2018-06-29T01:24:48.021Z,17.20
2018-06-29T01:27:17.243Z,17.10
2018-06-29T01:29:46.657Z,17.00
2018-06-29T01:32:16.268Z,17.00
2018-06-29T01:34:45.583Z,17.00
2018-06-29T01:37:15.416Z,16.90
2018-06-29T01:39:44.648Z,16.90
2018-06-29T01:42:13.858Z,16.80
2018-06-29T01:44:43.148Z,16.80
2018-06-29T01:47:12.384Z,16.70
2018-06-29T01:49:41.775Z,16.70
2018-06-29T01:52:11.052Z,16.70
2018-06-29T01:54:40.283Z,16.70
2018-06-29T01:57:09.751Z,16.70
2018-06-29T01:59:39.046Z,16.60
2018-06-29T02:02:08.288Z,16.60
2018-06-29T02:04:37.533Z,16.60
2018-06-29T02:07:06.923Z,16.60
2018-06-29T02:09:36.134Z,16.60
2018-06-29T02:12:05.435Z,16.50
2018-06-29T02:14:34.676Z,16.60
2018-06-29T02:17:03.952Z,16.50
2018-06-29T02:19:33.211Z,16.50
2018-06-29T02:22:03.172Z,16.50
2018-06-29T02:24:32.528Z,16.50
2018-06-29T02:27:01.741Z,16.40
2018-06-29T02:29:30.988Z,16.40
2018-06-29T02:32:00.425Z,16.30
2018-06-29T02:34:29.688Z,16.40
2018-06-29T02:36:58.998Z,16.30
2018-06-29T02:39:28.971Z,16.30
2018-06-29T02:41:58.336Z,16.30
2018-06-29T02:44:27.572Z,16.20
2018-06-29T02:46:56.840Z,16.10
2018-06-29T02:49:26.253Z,16.10
2018-06-29T02:51:55.524Z,16.10
2018-06-29T02:54:24.771Z,16.20
2018-06-29T02:56:54.050Z,16.10
2018-06-29T02:59:23.271Z,16.10
2018-06-29T03:01:52.531Z,16.20
2018-06-29T03:04:21.742Z,16.60
2018-06-29T03:06:51.140Z,16.30
2018-06-29T03:09:20.325Z,16.10
2018-06-29T03:11:49.529Z,16.10
2018-06-29T03:14:18.755Z,16.30
2018-06-29T03:16:48.027Z,16.30
2018-06-29T03:19:17.264Z,16.60
2018-06-29T03:21:46.503Z,16.40
2018-06-29T03:24:15.744Z,16.30
2018-06-29T03:26:45.008Z,16.30
2018-06-29T03:29:14.193Z,16.20
2018-06-29T03:31:43.490Z,16.10
2018-06-29T03:34:13.268Z,16.00
2018-06-29T03:36:42.520Z,16.00
2018-06-29T03:39:11.925Z,16.00
2018-06-29T03:41:41.208Z,16.10
2018-06-29T03:44:10.461Z,16.10
2018-06-29T03:46:39.675Z,16.10
2018-06-29T03:49:08.912Z,16.20
2018-06-29T03:51:38.185Z,16.40
2018-06-29T03:54:07.643Z,16.30
2018-06-29T03:56:36.942Z,16.30
2018-06-29T03:59:06.429Z,16.30
2018-06-29T04:01:35.697Z,16.40
2018-06-29T04:04:05.607Z,16.30
2018-06-29T04:06:35.068Z,16.30
2018-06-29T04:09:06.135Z,16.30
2018-06-29T04:11:35.465Z,16.40
2018-06-29T04:14:05.083Z,16.50
2018-06-29T04:16:34.584Z,16.50
2018-06-29T04:19:04.047Z,16.50
2018-06-29T04:21:33.676Z,16.40
2018-06-29T04:24:03.127Z,16.40
2018-06-29T04:26:32.917Z,16.50
2018-06-29T04:29:02.929Z,16.50
2018-06-29T04:31:32.226Z,16.60
2018-06-29T04:34:01.590Z,16.70
2018-06-29T04:36:31.021Z,16.70
2018-06-29T04:39:00.423Z,16.70
2018-06-29T04:41:29.762Z,16.80
2018-06-29T04:43:59.894Z,16.80
2018-06-29T04:46:29.235Z,16.90
2018-06-29T04:48:59.646Z,16.90
2018-06-29T04:51:29.015Z,16.90
2018-06-29T04:53:58.679Z,17.00
2018-06-29T04:56:27.917Z,17.10
2018-06-29T04:58:57.171Z,17.20
2018-06-29T05:01:26.510Z,17.30
2018-06-29T05:03:55.838Z,17.60
2018-06-29T05:06:25.132Z,17.70
2018-06-29T05:08:54.400Z,17.60
2018-06-29T05:11:23.718Z,17.60
2018-06-29T05:13:53.796Z,17.80
2018-06-29T05:16:23.898Z,17.80
2018-06-29T05:18:53.560Z,17.90
2018-06-29T05:21:22.858Z,17.90
2018-06-29T05:23:52.094Z,18.00
2018-06-29T05:26:21.503Z,18.10
2018-06-29T05:28:51.383Z,18.20
2018-06-29T05:31:20.927Z,18.20
2018-06-29T05:33:50.260Z,18.30
2018-06-29T05:36:20.054Z,18.50
2018-06-29T05:38:49.366Z,18.50
2018-06-29T05:41:19.395Z,18.60
2018-06-29T05:43:48.943Z,18.50
2018-06-29T05:46:18.271Z,18.70
2018-06-29T05:48:48.209Z,18.90
2018-06-29T05:51:17.541Z,19.00
2018-06-29T05:53:47.880Z,19.20
2018-06-29T05:56:17.246Z,19.30
2018-06-29T05:58:46.547Z,19.60
2018-06-29T06:01:15.891Z,19.80
2018-06-29T06:03:45.210Z,20.00
2018-06-29T06:06:14.505Z,20.10
2018-06-29T06:08:43.866Z,20.30
2018-06-29T06:11:13.297Z,20.50
2018-06-29T06:13:42.533Z,20.70
2018-06-29T06:16:11.918Z,20.90
2018-06-29T06:18:41.174Z,20.90
2018-06-29T06:21:10.639Z,21.20
2018-06-29T06:23:40.735Z,21.40
2018-06-29T06:26:10.066Z,21.70
2018-06-29T06:28:40.137Z,21.90
2018-06-29T06:31:09.964Z,22.10
2018-06-29T06:33:39.319Z,22.00
2018-06-29T06:36:09.243Z,21.70
2018-06-29T06:38:38.576Z,22.00
2018-06-29T06:41:08.044Z,22.10
2018-06-29T06:43:37.334Z,22.30
2018-06-29T06:46:06.704Z,22.40
2018-06-29T06:48:36.018Z,22.50
2018-06-29T06:51:05.991Z,22.70
2018-06-29T06:53:35.388Z,23.00
2018-06-29T06:56:04.580Z,23.30
2018-06-29T06:58:34.317Z,23.40
2018-06-29T07:01:03.976Z,23.70
2018-06-29T07:03:33.384Z,23.70
2018-06-29T07:06:02.920Z,23.70
2018-06-29T07:08:32.287Z,24.00
2018-06-29T07:11:01.629Z,24.20
2018-06-29T07:16:00.384Z,24.70
2018-06-29T07:18:30.448Z,24.90
2018-06-29T07:20:59.848Z,25.00
2018-06-29T07:23:29.150Z,25.10
2018-06-29T07:25:58.572Z,25.40
2018-06-29T07:28:27.921Z,25.60
2018-06-29T07:30:57.184Z,25.70
2018-06-29T07:33:26.427Z,25.90
2018-06-29T07:35:56.451Z,26.10
2018-06-29T07:38:25.704Z,25.90
2018-06-29T07:40:55.072Z,26.10
2018-06-29T07:43:24.416Z,26.30
2018-06-29T07:45:53.836Z,26.50
2018-06-29T07:48:23.140Z,26.20
2018-06-29T07:50:52.499Z,26.40
2018-06-29T07:53:21.813Z,26.60
2018-06-29T07:55:51.374Z,26.80
2018-06-29T07:58:20.858Z,27.10
2018-06-29T08:00:50.012Z,27.30
2018-06-29T08:03:19.320Z,27.40
2018-06-29T08:05:48.591Z,27.50
2018-06-29T08:08:18.487Z,27.50
2018-06-29T08:10:47.803Z,27.60
2018-06-29T08:13:17.075Z,27.80
2018-06-29T08:15:46.367Z,27.80
2018-06-29T08:18:15.687Z,27.90
2018-06-29T08:20:44.996Z,27.90
2018-06-29T08:23:14.354Z,28.00
2018-06-29T08:25:44.325Z,28.20
2018-06-29T08:28:13.731Z,28.30
2018-06-29T08:30:43.127Z,28.80
2018-06-29T08:33:12.443Z,28.90
2018-06-29T08:35:42.604Z,29.10
2018-06-29T08:38:12.007Z,29.30
2018-06-29T08:40:41.430Z,29.10
2018-06-29T08:43:10.740Z,29.30
2018-06-29T08:45:40.329Z,29.40
2018-06-29T08:48:10.099Z,29.70
2018-06-29T08:50:39.379Z,29.70
2018-06-29T08:53:08.656Z,29.90
2018-06-29T08:55:37.984Z,30.30
2018-06-29T08:58:07.279Z,30.40
2018-06-29T09:00:36.545Z,30.30
2018-06-29T09:03:05.763Z,30.60
2018-06-29T09:05:35.161Z,30.70
2018-06-29T09:08:04.459Z,30.70
2018-06-29T09:10:33.752Z,30.60
2018-06-29T09:13:03.223Z,30.60
2018-06-29T09:15:32.836Z,30.70
2018-06-29T09:18:02.109Z,31.10
2018-06-29T09:20:31.451Z,31.30
2018-06-29T09:23:00.727Z,31.40
2018-06-29T09:25:30.068Z,31.60
2018-06-29T09:27:59.478Z,31.60
2018-06-29T09:30:28.778Z,31.80
2018-06-29T09:32:58.904Z,31.80
2018-06-29T09:35:28.227Z,31.80
2018-06-29T09:37:58.301Z,32.10
2018-06-29T09:40:27.622Z,32.40
2018-06-29T09:42:57.488Z,32.40
2018-06-29T09:45:26.911Z,32.40
2018-06-29T09:47:56.310Z,32.40
2018-06-29T09:50:25.600Z,32.20
2018-06-29T09:52:55.460Z,32.30
2018-06-29T09:55:25.300Z,32.40
2018-06-29T09:57:54.680Z,32.50
2018-06-29T10:00:29.898Z,32.60
2018-06-29T10:02:59.869Z,32.70
2018-06-29T10:05:29.624Z,33.30
2018-06-29T10:07:59.389Z,33.00
2018-06-29T10:10:28.670Z,33.10
2018-06-29T10:12:58.584Z,33.20
2018-06-29T10:15:27.859Z,33.50
2018-06-29T10:17:57.215Z,33.60
2018-06-29T10:20:26.464Z,33.60
2018-06-29T10:22:55.783Z,33.60
2018-06-29T10:25:25.159Z,33.80
2018-06-29T10:27:54.487Z,34.00
2018-06-29T10:30:24.372Z,33.90
2018-06-29T10:32:53.652Z,34.00
2018-06-29T10:35:23.656Z,34.30
2018-06-29T10:37:53.140Z,34.00
2018-06-29T10:40:22.552Z,34.10
2018-06-29T10:42:51.777Z,34.20
2018-06-29T10:45:21.684Z,34.10
2018-06-29T10:47:51.484Z,34.10
2018-06-29T10:50:20.695Z,34.10
2018-06-29T10:52:50.104Z,34.00
2018-06-29T10:55:19.415Z,34.10
2018-06-29T10:57:48.768Z,34.30
2018-06-29T11:00:18.079Z,34.20
2018-06-29T11:02:47.388Z,34.50
2018-06-29T11:05:16.787Z,34.30
2018-06-29T11:07:46.020Z,34.50
2018-06-29T11:10:15.767Z,34.70
2018-06-29T11:12:45.558Z,34.70
2018-06-29T11:15:15.005Z,35.10
2018-06-29T11:17:44.295Z,35.00
2018-06-29T11:20:14.163Z,34.90
2018-06-29T11:22:43.590Z,35.00
2018-06-29T11:25:12.831Z,35.10
2018-06-29T11:27:42.172Z,35.00
2018-06-29T11:30:11.510Z,35.00
2018-06-29T11:32:40.853Z,35.00
2018-06-29T11:35:10.232Z,35.10
2018-06-29T11:37:39.508Z,35.20
2018-06-29T11:40:08.804Z,35.00
2018-06-29T11:42:38.120Z,35.20
2018-06-29T11:45:07.568Z,35.30
2018-06-29T11:47:36.863Z,35.50
2018-06-29T11:50:06.844Z,35.40
2018-06-29T11:52:36.291Z,35.10
2018-06-29T11:55:05.543Z,35.40
2018-06-29T11:57:34.964Z,35.10
2018-06-29T12:00:04.954Z,35.20
2018-06-29T12:02:34.170Z,35.40
2018-06-29T12:05:03.550Z,35.30
2018-06-29T12:07:32.803Z,35.40
2018-06-29T12:10:02.083Z,35.40
2018-06-29T12:12:31.385Z,35.30
2018-06-29T12:15:00.764Z,34.90
2018-06-29T12:17:30.052Z,34.90
2018-06-29T12:19:59.368Z,34.90
2018-06-29T12:22:28.911Z,34.90
2018-06-29T12:24:58.327Z,35.20
2018-06-29T12:27:28.184Z,35.30
2018-06-29T12:29:57.485Z,35.40
2018-06-29T12:32:26.843Z,35.10
2018-06-29T12:34:56.715Z,34.90
2018-06-29T12:37:26.139Z,35.00
2018-06-29T12:39:55.648Z,35.10
2018-06-29T12:42:25.043Z,35.20
2018-06-29T12:44:54.284Z,35.00
2018-06-29T12:47:24.243Z,35.30
2018-06-29T12:49:53.540Z,35.70
2018-06-29T12:52:22.853Z,35.40
2018-06-29T12:54:52.150Z,35.20
2018-06-29T12:57:21.516Z,35.70
2018-06-29T12:59:50.849Z,35.40
2018-06-29T13:02:20.103Z,35.10
2018-06-29T13:04:49.308Z,35.10
2018-06-29T13:07:18.585Z,35.30
2018-06-29T13:09:47.835Z,35.20
2018-06-29T13:12:17.720Z,35.00
2018-06-29T13:14:47.175Z,34.90
2018-06-29T13:17:16.434Z,35.00
2018-06-29T13:19:45.853Z,35.10
2018-06-29T13:22:15.127Z,34.90
2018-06-29T13:24:44.371Z,34.90
2018-06-29T13:27:13.672Z,35.00
2018-06-29T13:29:43.655Z,34.70
2018-06-29T13:32:12.985Z,34.70
2018-06-29T13:34:42.256Z,34.70
2018-06-29T13:37:11.496Z,34.80
2018-06-29T13:39:40.788Z,34.90
2018-06-29T13:42:10.183Z,34.90
2018-06-29T13:44:39.484Z,34.80
2018-06-29T13:47:08.711Z,35.00
2018-06-29T13:49:38.076Z,34.80
2018-06-29T13:52:07.388Z,34.90
2018-06-29T13:54:36.652Z,34.90
2018-06-29T13:57:05.892Z,34.90
2018-06-29T13:59:35.971Z,34.80
2018-06-29T14:02:05.297Z,34.60
2018-06-29T14:04:34.576Z,34.50
2018-06-29T14:07:03.985Z,34.70
2018-06-29T14:09:33.248Z,34.50
2018-06-29T14:12:02.528Z,34.30
2018-06-29T14:14:31.929Z,34.20
2018-06-29T14:17:04.374Z,34.00
2018-06-29T14:19:33.750Z,33.80
2018-06-29T14:22:03.019Z,33.90
2018-06-29T14:24:32.359Z,33.90
2018-06-29T14:27:01.637Z,33.60
2018-06-29T14:29:31.002Z,33.40
2018-06-29T14:32:01.024Z,33.60
2018-06-29T14:34:30.328Z,33.60
2018-06-29T14:36:59.643Z,33.40
2018-06-29T14:39:29.792Z,33.30
2018-06-29T14:41:59.063Z,33.50
2018-06-29T14:44:28.351Z,33.40
2018-06-29T14:46:57.666Z,33.40
2018-06-29T14:49:26.996Z,33.40
2018-06-29T14:51:57.449Z,33.30
2018-06-29T14:54:26.893Z,33.10
2018-06-29T14:56:56.163Z,32.90
2018-06-29T14:59:25.436Z,32.80
2018-06-29T15:01:54.740Z,32.70
2018-06-29T15:04:24.743Z,32.50
2018-06-29T15:06:54.085Z,32.30
2018-06-29T15:09:23.421Z,32.00
2018-06-29T15:11:52.794Z,31.80
2018-06-29T15:14:22.068Z,31.60
2018-06-29T15:16:51.326Z,31.40
2018-06-29T15:19:25.061Z,31.30
2018-06-29T15:21:54.483Z,31.10
2018-06-29T15:24:23.635Z,31.00
2018-06-29T15:26:52.974Z,30.90
2018-06-29T15:29:22.593Z,30.80
2018-06-29T15:31:51.979Z,30.70
2018-06-29T15:34:21.307Z,30.50
2018-06-29T15:36:50.543Z,30.40
2018-06-29T15:39:19.837Z,30.40
2018-06-29T15:41:49.249Z,30.20
2018-06-29T15:44:18.533Z,30.00
2018-06-29T15:46:47.807Z,29.80
2018-06-29T15:49:17.129Z,29.80
2018-06-29T15:51:46.520Z,29.70
2018-06-29T15:54:15.850Z,29.60
2018-06-29T15:56:45.191Z,29.50
2018-06-29T15:59:14.487Z,29.50
2018-06-29T16:01:43.797Z,29.40
2018-06-29T16:04:13.235Z,29.20
2018-06-29T16:06:42.585Z,29.10
2018-06-29T16:09:11.999Z,29.10
2018-06-29T16:11:41.248Z,28.90
2018-06-29T16:14:10.582Z,28.90
2018-06-29T16:16:39.926Z,28.80
2018-06-29T16:19:09.215Z,28.70
2018-06-29T16:21:38.548Z,28.70
2018-06-29T16:24:07.803Z,28.60
2018-06-29T16:26:37.194Z,28.40
2018-06-29T16:29:06.531Z,28.30
2018-06-29T16:31:36.437Z,28.30
2018-06-29T16:34:06.392Z,28.10
2018-06-29T16:36:35.928Z,28.10
2018-06-29T16:39:08.330Z,28.00
2018-06-29T16:41:37.735Z,28.00
2018-06-29T16:44:06.976Z,28.00
2018-06-29T16:46:36.471Z,27.80
2018-06-29T16:49:06.040Z,27.70
2018-06-29T16:51:35.923Z,27.60
2018-06-29T16:54:05.208Z,27.60
2018-06-29T16:56:34.557Z,27.60
2018-06-29T16:59:04.552Z,27.50
2018-06-29T17:01:33.819Z,27.50
2018-06-29T17:04:03.095Z,27.40
2018-06-29T17:06:32.384Z,27.40
2018-06-29T17:09:02.217Z,27.30
2018-06-29T17:11:31.536Z,27.30
2018-06-29T17:14:00.843Z,27.20
2018-06-29T17:16:30.439Z,27.20
2018-06-29T17:18:59.947Z,27.10
2018-06-29T17:21:29.943Z,27.10
2018-06-29T17:23:59.373Z,27.00
2018-06-29T17:26:28.648Z,26.90
2018-06-29T17:28:58.042Z,26.90
2018-06-29T17:31:27.400Z,26.90
2018-06-29T17:33:56.848Z,26.80
2018-06-29T17:36:25.961Z,26.80
2018-06-29T17:38:55.927Z,26.70
2018-06-29T17:41:25.171Z,26.60
2018-06-29T17:43:54.439Z,26.60
2018-06-29T17:46:23.862Z,26.50
2018-06-29T17:48:53.205Z,26.50
2018-06-29T17:51:22.468Z,26.40
2018-06-29T17:53:52.067Z,26.40
2018-06-29T17:56:21.326Z,26.30
2018-06-29T17:58:51.725Z,26.20
2018-06-29T18:01:21.066Z,26.20
2018-06-29T18:03:50.467Z,26.10
2018-06-29T18:06:19.742Z,26.10
2018-06-29T18:08:49.051Z,26.00
2018-06-29T18:11:18.295Z,26.00
2018-06-29T18:13:47.686Z,25.90
2018-06-29T18:16:17.027Z,25.90
2018-06-29T18:18:46.376Z,25.80
2018-06-29T18:21:15.814Z,25.80
2018-06-29T18:23:45.174Z,25.70
2018-06-29T18:26:14.433Z,25.70
2018-06-29T18:28:43.787Z,25.60
2018-06-29T18:31:13.854Z,25.50
2018-06-29T18:33:43.747Z,25.50
2018-06-29T18:36:13.172Z,25.40
2018-06-29T18:38:42.428Z,25.30
2018-06-29T18:41:11.710Z,25.20
2018-06-29T18:43:41.119Z,25.10
2018-06-29T18:46:10.362Z,25.00
2018-06-29T18:48:39.692Z,24.90
2018-06-29T18:51:08.992Z,24.90
2018-06-29T18:53:38.923Z,24.80
2018-06-29T18:56:08.182Z,24.70
2018-06-29T18:58:38.070Z,24.60
2018-06-29T19:01:07.691Z,24.60
2018-06-29T19:06:07.411Z,24.60
2018-06-29T19:08:36.806Z,24.60
2018-06-29T19:11:06.134Z,24.50
2018-06-29T19:13:35.476Z,24.50
2018-06-29T19:16:04.889Z,24.40
2018-06-29T19:18:34.203Z,24.40
2018-06-29T19:21:03.478Z,24.30
2018-06-29T19:23:32.924Z,24.20
2018-06-29T19:26:02.317Z,24.10
2018-06-29T19:28:31.940Z,24.00
2018-06-29T19:31:01.204Z,23.90
2018-06-29T19:33:30.621Z,23.80
2018-06-29T19:35:59.983Z,23.70
2018-06-29T19:38:30.348Z,23.60
2018-06-29T19:40:59.720Z,23.60
2018-06-29T19:43:29.295Z,23.50
2018-06-29T19:45:58.580Z,23.40
2018-06-29T19:48:27.884Z,23.40
2018-06-29T19:50:57.456Z,23.40
2018-06-29T19:53:26.745Z,23.30
2018-06-29T19:55:56.055Z,23.10
2018-06-29T19:58:25.348Z,23.00
2018-06-29T20:00:54.592Z,22.90
2018-06-29T20:03:23.933Z,22.80
2018-06-29T20:05:53.307Z,22.80
2018-06-29T20:08:22.555Z,22.80
2018-06-29T20:10:52.491Z,22.80
2018-06-29T20:13:22.982Z,22.90
2018-06-29T20:15:52.335Z,22.90
2018-06-29T20:18:21.591Z,22.70
2018-06-29T20:20:50.911Z,22.60
2018-06-29T20:23:20.159Z,22.50
2018-06-29T20:25:49.559Z,22.40
2018-06-29T20:28:18.836Z,22.20
2018-06-29T20:30:48.799Z,22.20
2018-06-29T20:33:18.488Z,22.20
2018-06-29T20:35:48.635Z,22.10
2018-06-29T20:38:18.396Z,22.00
2018-06-29T20:40:47.639Z,21.90
2018-06-29T20:43:16.951Z,21.80
2018-06-29T20:45:46.284Z,21.70
2018-06-29T20:48:15.669Z,21.80
2018-06-29T20:50:45.083Z,21.80
2018-06-29T20:53:14.328Z,21.70
2018-06-29T20:55:43.693Z,21.60
2018-06-29T20:58:12.919Z,21.50
2018-06-29T21:00:42.400Z,21.50
2018-06-29T21:03:11.812Z,21.40
2018-06-29T21:05:41.090Z,21.40
2018-06-29T21:08:10.664Z,21.30
2018-06-29T21:10:40.532Z,21.30
2018-06-29T21:13:09.871Z,21.20
2018-06-29T21:15:39.188Z,21.30
2018-06-29T21:18:08.712Z,21.10
2018-06-29T21:20:38.384Z,21.00
2018-06-29T21:23:07.767Z,20.90
2018-06-29T21:25:37.138Z,20.80
2018-06-29T21:28:06.413Z,20.80
2018-06-29T21:30:36.144Z,20.90
2018-06-29T21:33:05.459Z,20.80
2018-06-29T21:35:35.205Z,20.70
2018-06-29T21:38:04.569Z,20.70
2018-06-29T21:40:33.896Z,20.70
2018-06-29T21:43:03.148Z,20.70
2018-06-29T21:45:32.487Z,20.70
2018-06-29T21:48:01.880Z,20.60
2018-06-29T21:50:31.307Z,20.60
2018-06-29T21:53:00.555Z,20.80
2018-06-29T21:55:29.995Z,20.60
2018-06-29T21:57:59.311Z,20.80
2018-06-29T22:00:33.851Z,20.60
2018-06-29T22:03:08.094Z,20.70
2018-06-29T22:05:38.236Z,20.60
2018-06-29T22:08:08.388Z,20.50
2018-06-29T22:10:38.444Z,20.40
2018-06-29T22:13:07.971Z,20.30
2018-06-29T22:15:37.449Z,20.10
2018-06-29T22:18:06.871Z,20.10
2018-06-29T22:20:36.467Z,20.00
2018-06-29T22:23:05.780Z,20.00
2018-06-29T22:25:35.691Z,20.10
2018-06-29T22:28:05.304Z,20.00
2018-06-29T22:30:34.608Z,20.10
2018-06-29T22:33:03.945Z,20.10
2018-06-29T22:35:38.919Z,20.10
2018-06-29T22:38:08.293Z,20.10
2018-06-29T22:40:37.666Z,20.10
2018-06-29T22:43:06.966Z,20.10
2018-06-29T22:45:36.584Z,20.00
2018-06-29T22:48:06.021Z,19.90
2018-06-29T22:50:36.181Z,19.80
2018-06-29T22:53:05.539Z,19.80
2018-06-29T22:55:34.956Z,19.80
2018-06-29T22:58:04.539Z,19.80
2018-06-29T23:00:33.824Z,19.60
2018-06-29T23:03:08.631Z,19.70
2018-06-29T23:05:37.905Z,20.00
2018-06-29T23:08:08.516Z,20.00
2018-06-29T23:10:38.356Z,20.00
2018-06-29T23:13:08.776Z,19.90
2018-06-29T23:15:38.068Z,19.80
2018-06-29T23:18:07.935Z,19.70
2018-06-29T23:20:37.178Z,19.70
2018-06-29T23:23:07.121Z,19.60
2018-06-29T23:25:36.414Z,19.70
2018-06-29T23:28:05.978Z,19.70
2018-06-29T23:30:35.259Z,19.60
2018-06-29T23:33:04.604Z,19.70
2018-06-29T23:35:33.921Z,19.70
2018-06-29T23:38:04.036Z,19.50
2018-06-29T23:40:33.310Z,19.60
2018-06-29T23:43:02.604Z,19.50
2018-06-29T23:45:31.921Z,19.50
2018-06-29T23:48:01.164Z,19.30
2018-06-29T23:50:31.148Z,19.20
2018-06-29T23:53:00.536Z,19.10
2018-06-29T23:55:29.998Z,19.40
2018-06-29T23:57:59.428Z,19.30
